createdAt,value
2023-04-14T00:02:23.698Z,14.57
2023-04-14T00:07:25.978Z,11.27
2023-04-14T00:12:28.267Z,8.20
2023-04-14T00:17:33.023Z,9.38
2023-04-14T00:22:35.197Z,8.38
2023-04-14T00:27:37.441Z,10.23
2023-04-14T00:32:41.000Z,7.22
2023-04-14T00:37:43.085Z,11.50
2023-04-14T00:42:46.585Z,8.30
2023-04-14T00:47:51.887Z,13.30
2023-04-14T00:52:54.308Z,10.98
2023-04-14T00:58:00.222Z,15.50
2023-04-14T01:03:04.334Z,10.48
2023-04-14T01:08:06.702Z,18.35
2023-04-14T01:13:19.715Z,12.80
2023-04-14T01:18:33.229Z,15.23
2023-04-14T01:23:41.085Z,19.38
2023-04-14T01:29:01.692Z,16.23
2023-04-14T01:34:13.144Z,13.95
2023-04-14T01:39:24.040Z,18.70
2023-04-14T01:44:28.405Z,18.65
2023-04-14T01:49:35.294Z,16.55
2023-04-14T01:54:39.582Z,16.88
2023-04-14T01:59:42.577Z,16.75
2023-04-14T02:04:47.523Z,15.82
2023-04-14T02:09:53.236Z,15.85
2023-04-14T02:14:58.758Z,13.75
2023-04-14T02:20:02.438Z,12.85
2023-04-14T02:25:05.339Z,14.82
2023-04-14T02:30:12.735Z,9.88
2023-04-14T02:35:22.498Z,13.82
2023-04-14T02:40:29.721Z,19.92
2023-04-14T02:45:35.326Z,15.10
2023-04-14T02:50:43.102Z,13.65
2023-04-14T02:55:48.141Z,13.23
2023-04-14T03:00:51.730Z,15.77
2023-04-14T03:05:56.037Z,15.30
2023-04-14T03:10:59.775Z,13.00
2023-04-14T03:16:06.345Z,19.95
2023-04-14T03:21:10.032Z,11.68
2023-04-14T03:26:15.232Z,16.38
2023-04-14T03:31:20.307Z,18.65
2023-04-14T03:36:25.836Z,13.88
2023-04-14T03:41:29.157Z,13.95
2023-04-14T03:46:31.379Z,15.85
2023-04-14T03:51:38.791Z,19.35
2023-04-14T03:56:42.752Z,56.50
2023-04-14T04:01:46.895Z,15.25
2023-04-14T04:06:51.190Z,15.30
2023-04-14T04:11:55.424Z,15.88
2023-04-14T04:17:02.732Z,15.30
2023-04-14T04:22:07.955Z,18.08
2023-04-14T04:27:24.491Z,23.02
2023-04-14T04:32:30.333Z,18.23
2023-04-14T04:37:34.586Z,13.88
2023-04-14T04:42:41.372Z,14.82
2023-04-14T04:47:43.522Z,38.70
2023-04-14T04:52:47.123Z,17.98
2023-04-14T04:57:49.234Z,14.43
2023-04-14T05:02:51.505Z,16.35
2023-04-14T05:07:55.210Z,19.25
2023-04-14T05:12:57.279Z,14.90
2023-04-14T05:17:59.616Z,16.08
2023-04-14T05:23:03.610Z,12.13
2023-04-14T05:28:05.823Z,13.25
2023-04-14T05:33:08.095Z,12.18
2023-04-14T05:38:11.670Z,11.32
2023-04-14T05:43:14.010Z,12.60
2023-04-14T05:48:18.095Z,9.88
2023-04-14T05:53:21.951Z,9.93
2023-04-14T05:58:24.159Z,8.27
2023-04-14T06:03:26.437Z,14.35
2023-04-14T06:08:30.262Z,8.60
2023-04-14T06:13:34.827Z,6.32
2023-04-14T06:18:39.984Z,12.63
2023-04-14T06:23:43.578Z,8.93
2023-04-14T06:28:45.790Z,6.45
2023-04-14T06:33:48.019Z,7.80
2023-04-14T06:38:51.680Z,6.70
2023-04-14T06:43:53.802Z,9.85
2023-04-14T06:48:55.894Z,7.63
2023-04-14T06:53:59.857Z,7.18
2023-04-14T06:59:02.385Z,5.90
2023-04-14T07:04:07.756Z,7.45
2023-04-14T07:09:13.224Z,5.38
2023-04-14T07:14:15.419Z,6.55
2023-04-14T07:19:20.108Z,4.13
2023-04-14T07:24:23.741Z,6.72
2023-04-14T07:29:25.976Z,8.23
2023-04-14T07:34:28.404Z,5.40
2023-04-14T07:39:32.065Z,3.85
2023-04-14T07:44:37.053Z,7.47
2023-04-14T07:49:39.387Z,4.57
2023-04-14T07:54:43.035Z,4.40
2023-04-14T07:59:48.457Z,5.38
2023-04-14T08:04:50.735Z,6.78
2023-04-14T08:09:54.561Z,4.72
2023-04-14T08:14:56.868Z,5.70
2023-04-14T08:20:00.378Z,5.07
2023-04-14T08:25:04.276Z,4.97
2023-04-14T08:30:10.197Z,4.45
2023-04-14T08:35:36.881Z,6.10
2023-04-14T08:40:42.664Z,6.93
2023-04-14T08:45:45.873Z,7.22
2023-04-14T08:50:58.819Z,5.15
2023-04-14T08:56:04.978Z,4.32
2023-04-14T09:01:10.502Z,5.65
2023-04-14T09:06:15.037Z,5.13
2023-04-14T09:11:19.110Z,7.55
2023-04-14T09:16:21.553Z,6.55
2023-04-14T09:21:51.916Z,4.25
2023-04-14T09:26:48.047Z,4.80
2023-04-14T09:31:52.495Z,10.43
2023-04-14T09:37:02.503Z,5.88
2023-04-14T09:42:07.931Z,5.32
2023-04-14T09:47:10.086Z,8.45
2023-04-14T09:52:12.426Z,7.15
2023-04-14T09:57:25.108Z,7.93
2023-04-14T10:02:27.488Z,8.88
2023-04-14T10:07:29.774Z,8.02
2023-04-14T10:12:33.705Z,7.78
2023-04-14T10:17:36.090Z,5.80
2023-04-14T10:22:40.840Z,6.97
2023-04-14T10:27:45.170Z,6.57
2023-04-14T10:32:48.046Z,7.18
2023-04-14T10:37:51.019Z,7.45
2023-04-14T10:42:55.911Z,4.88
2023-04-14T10:47:58.280Z,7.10
2023-04-14T10:53:06.874Z,9.35
2023-04-14T10:58:18.857Z,4.30
2023-04-14T11:03:21.690Z,5.72
2023-04-14T11:08:28.240Z,7.47
2023-04-14T11:13:33.066Z,9.43
2023-04-14T11:18:38.669Z,6.13
2023-04-14T11:23:41.734Z,7.47
2023-04-14T11:28:46.660Z,8.63
2023-04-14T11:33:48.892Z,7.00
2023-04-14T11:38:51.155Z,5.22
2023-04-14T11:43:55.127Z,13.57
2023-04-14T11:48:57.559Z,7.15
2023-04-14T11:54:00.273Z,9.55
2023-04-14T11:59:05.854Z,11.23
2023-04-14T12:04:09.253Z,5.10
2023-04-14T12:09:15.082Z,6.90
2023-04-14T12:14:19.503Z,8.88
2023-04-14T12:19:21.671Z,7.10
2023-04-14T12:24:23.989Z,6.68
2023-04-14T12:29:28.410Z,7.90
2023-04-14T12:34:34.417Z,4.90
2023-04-14T12:39:50.955Z,3.47
2023-04-14T12:45:02.058Z,4.60
2023-04-14T12:50:22.712Z,5.28
2023-04-14T12:55:26.620Z,6.47
2023-04-14T13:00:30.696Z,3.03
2023-04-14T13:05:32.990Z,4.97
2023-04-14T13:10:35.147Z,4.70
2023-04-14T13:16:13.297Z,3.33
2023-04-14T13:21:00.938Z,4.57
2023-04-14T13:26:03.284Z,3.42
2023-04-14T13:31:07.088Z,2.15
2023-04-14T13:36:09.422Z,4.90
2023-04-14T13:41:22.932Z,4.30
2023-04-14T13:46:28.450Z,2.80
2023-04-14T13:51:31.672Z,4.00
2023-04-14T13:56:35.172Z,8.00
2023-04-14T14:01:38.802Z,3.55
2023-04-14T14:06:41.266Z,2.42
2023-04-14T14:11:43.409Z,2.97
2023-04-14T14:16:47.218Z,2.58
2023-04-14T14:21:49.454Z,2.28
2023-04-14T14:26:51.613Z,2.20
2023-04-14T14:31:55.419Z,2.85
2023-04-14T14:36:57.789Z,4.53
2023-04-14T14:42:00.701Z,3.63
2023-04-14T14:47:04.581Z,3.45
2023-04-14T14:52:07.152Z,4.50
2023-04-14T14:57:09.206Z,5.03
2023-04-14T15:02:12.940Z,3.50
2023-04-14T15:07:15.046Z,4.15
2023-04-14T15:12:17.456Z,2.17
2023-04-14T15:17:21.188Z,2.00
2023-04-14T15:22:23.398Z,1.70
2023-04-14T15:27:28.287Z,3.83
2023-04-14T15:32:31.899Z,2.60
2023-04-14T15:37:34.217Z,1.58
2023-04-14T15:42:40.754Z,2.47
2023-04-14T15:47:44.857Z,2.58
2023-04-14T15:52:47.034Z,3.60
2023-04-14T15:57:49.887Z,4.63
2023-04-14T16:02:54.774Z,3.83
2023-04-14T16:07:57.121Z,4.38
2023-04-14T16:12:59.874Z,5.32
2023-04-14T16:18:04.786Z,3.30
2023-04-14T16:23:07.023Z,2.58
2023-04-14T16:28:09.255Z,3.95
2023-04-14T16:33:13.188Z,5.65
2023-04-14T16:38:17.563Z,5.18
2023-04-14T16:43:19.664Z,4.35
2023-04-14T16:48:23.377Z,2.85
2023-04-14T16:53:25.545Z,4.85
2023-04-14T16:58:27.799Z,4.32
2023-04-14T17:03:33.935Z,4.22
2023-04-14T17:08:36.745Z,5.07
2023-04-14T17:13:38.934Z,4.57
2023-04-14T17:18:42.476Z,5.22
2023-04-14T17:23:44.614Z,5.97
2023-04-14T17:28:46.737Z,5.65
2023-04-14T17:33:56.383Z,8.77
2023-04-14T17:38:58.574Z,5.78
2023-04-14T17:44:01.056Z,6.47
2023-04-14T17:49:04.963Z,3.92
2023-04-14T17:54:07.252Z,6.07
2023-04-14T17:59:09.493Z,6.07
2023-04-14T18:04:13.138Z,2.75
2023-04-14T18:09:15.326Z,6.55
2023-04-14T18:14:17.505Z,4.45
2023-04-14T18:19:21.103Z,8.45
2023-04-14T18:34:33.749Z,4.80
2023-04-14T18:39:36.064Z,4.88
2023-04-14T18:44:38.233Z,4.55
2023-04-14T18:49:42.897Z,6.68
2023-04-14T18:54:45.136Z,5.38
2023-04-14T18:59:47.301Z,3.83
2023-04-14T19:04:50.844Z,5.47
2023-04-14T19:09:52.951Z,5.80
2023-04-14T19:14:55.052Z,7.93
2023-04-14T19:20:06.842Z,8.93
2023-04-14T19:25:39.999Z,7.97
2023-04-14T19:30:43.752Z,4.88
2023-04-14T19:35:47.267Z,5.80
2023-04-14T19:40:50.251Z,4.18
2023-04-14T19:45:53.444Z,8.48
2023-04-14T19:50:57.068Z,9.25
2023-04-14T19:55:59.287Z,6.57
2023-04-14T20:01:01.538Z,6.10
2023-04-14T20:06:06.265Z,5.43
2023-04-14T20:11:19.571Z,7.05
2023-04-14T20:16:23.319Z,7.95
2023-04-14T20:21:26.882Z,7.00
2023-04-14T20:26:30.841Z,5.53
2023-04-14T20:31:33.285Z,6.45
2023-04-14T20:36:37.284Z,7.00
2023-04-14T20:41:39.994Z,5.75
2023-04-14T20:46:42.510Z,6.35
2023-04-14T20:51:46.303Z,6.65
2023-04-14T20:56:48.433Z,5.80
2023-04-14T21:01:50.894Z,5.93
2023-04-14T21:06:54.597Z,8.27
2023-04-14T21:12:14.948Z,4.30
2023-04-14T21:17:18.433Z,5.75
2023-04-14T21:22:22.078Z,4.97
2023-04-14T21:27:26.058Z,10.18
2023-04-14T21:32:28.205Z,8.40
2023-04-14T21:37:34.163Z,6.65
2023-04-14T21:42:36.401Z,9.20
2023-04-14T21:47:40.989Z,8.88
2023-04-14T21:52:44.590Z,12.15
2023-04-14T21:57:49.465Z,7.53
2023-04-14T22:02:52.733Z,6.15
2023-04-14T22:07:56.411Z,5.28
2023-04-14T22:12:58.698Z,8.40
2023-04-14T22:18:00.954Z,5.43
2023-04-14T22:23:04.499Z,7.82
2023-04-14T22:28:07.283Z,7.93
2023-04-14T22:33:09.366Z,6.18
2023-04-14T22:38:12.927Z,8.07
2023-04-14T22:43:15.115Z,7.10
2023-04-14T22:48:17.265Z,8.75
2023-04-14T22:53:20.815Z,8.43
2023-04-14T22:58:23.085Z,7.25
2023-04-14T23:03:25.251Z,7.35
2023-04-14T23:08:28.848Z,8.35
2023-04-14T23:13:30.998Z,5.85
2023-04-14T23:18:33.124Z,7.57
2023-04-14T23:23:36.615Z,5.20
2023-04-14T23:28:38.825Z,6.13
2023-04-14T23:33:41.011Z,5.88
2023-04-14T23:38:44.504Z,6.93
2023-04-14T23:43:46.577Z,6.72
2023-04-14T23:48:48.660Z,5.82
2023-04-14T23:53:53.385Z,5.85
2023-04-14T23:58:55.644Z,8.63
